Time;durP1;ratioP1;P1;durP2;ratioP2;P2;SDS_P1;SDS_P2;PMS_P1;PMS_P2;Temp;Humidity;BMP_temperature;BMP_pressure;BME280_temperature;BME280_humidity;BME280_pressure;Samples;Min_cycle;Max_cycle;Signal;HPM_P1;HPM_P2
2023/02/27 00:03:50;;;;;;;;;;;1.40;1.00;;;;;;6179650;22;19931;-81
2023/02/27 00:06:16;;;;;;;;;;;1.40;1.00;;;;;;6124548;23;19905;-81
2023/02/27 00:08:42;;;;;;;;;;;1.40;1.00;;;;;;6097622;23;19905;-81
2023/02/27 00:11:08;;;;;;;;;;;1.40;1.00;;;;;;6123779;23;19979;-81
2023/02/27 00:13:34;;;;;;;;;;;1.40;1.00;;;;;;6123994;23;19909;-81
2023/02/27 00:15:59;;;;;;;;;;;1.40;1.00;;;;;;6120440;23;19912;-81
2023/02/27 00:18:24;;;;;;;;;;;1.40;1.00;;;;;;6122537;23;20245;-82
2023/02/27 00:20:50;;;;;;;;;;;1.40;1.00;;;;;;6122164;23;19947;-82
2023/02/27 00:23:16;;;;;;;;;;;1.40;1.00;;;;;;6122172;23;19905;-82
2023/02/27 00:25:41;;;;;;;;;;;1.40;1.00;;;;;;6096695;23;19988;-81
2023/02/27 00:28:07;;;;;;;;;;;1.30;99.90;;;;;;6122688;23;19913;-82
2023/02/27 00:30:32;;;;;;;;;;;1.30;99.90;;;;;;6122239;23;19924;-81
2023/02/27 00:32:58;;;;;;;;;;;1.30;1.00;;;;;;6121525;23;19932;-81
2023/02/27 00:35:23;;;;;;;;;;;1.20;1.00;;;;;;6122235;23;19912;-81
2023/02/27 00:37:49;;;;;;;;;;;1.20;23.60;;;;;;6122036;23;19905;-81
2023/02/27 00:40:14;;;;;;;;;;;1.20;1.00;;;;;;6122130;23;19932;-81
2023/02/27 00:42:40;;;;;;;;;;;1.20;1.00;;;;;;6121724;23;20289;-81
2023/02/27 00:45:05;;;;;;;;;;;1.20;1.00;;;;;;6096116;23;19912;-82
2023/02/27 00:47:31;;;;;;;;;;;1.20;1.00;;;;;;6122153;23;19905;-81
2023/02/27 00:49:57;;;;;;;;;;;1.20;1.00;;;;;;6122361;23;19912;-81
2023/02/27 00:52:22;;;;;;;;;;;1.20;99.90;;;;;;6121600;23;19951;-81
2023/02/27 00:54:48;;;;;;;;;;;1.20;1.00;;;;;;6121781;23;19912;-82
2023/02/27 00:57:13;;;;;;;;;;;1.10;1.00;;;;;;6122139;23;19912;-81
2023/02/27 00:59:39;;;;;;;;;;;1.10;1.00;;;;;;6121878;23;19905;-81
2023/02/27 01:02:04;;;;;;;;;;;1.10;1.00;;;;;;6121566;23;19906;-82
2023/02/27 01:04:30;;;;;;;;;;;1.10;1.00;;;;;;6121852;23;19923;-82
2023/02/27 01:06:55;;;;;;;;;;;1.10;89.20;;;;;;6095906;23;19911;-81
2023/02/27 01:09:21;;;;;;;;;;;1.10;1.00;;;;;;6095982;23;20285;-81
2023/02/27 01:11:46;;;;;;;;;;;1.10;1.00;;;;;;6121666;23;19905;-81
2023/02/27 01:14:12;;;;;;;;;;;1.10;35.50;;;;;;6122022;23;19988;-81
2023/02/27 01:16:37;;;;;;;;;;;1.10;41.20;;;;;;6124146;23;19905;-81
2023/02/27 01:19:03;;;;;;;;;;;1.10;79.90;;;;;;6122717;23;20386;-81
2023/02/27 01:21:28;;;;;;;;;;;1.10;1.00;;;;;;6122385;23;19909;-81
2023/02/27 01:23:53;;;;;;;;;;;1.00;1.00;;;;;;6122136;23;19931;-82
2023/02/27 01:26:19;;;;;;;;;;;1.00;99.90;;;;;;6124546;23;19913;-82
2023/02/27 01:28:44;;;;;;;;;;;0.90;99.90;;;;;;6097890;23;19984;-81
2023/02/27 01:31:10;;;;;;;;;;;0.90;99.90;;;;;;6122753;23;19908;-82
2023/02/27 01:33:35;;;;;;;;;;;0.80;99.90;;;;;;6123538;23;19905;-82
2023/02/27 01:36:01;;;;;;;;;;;0.80;1.00;;;;;;6122881;23;19905;-81
2023/02/27 01:38:26;;;;;;;;;;;0.70;1.00;;;;;;6119886;23;20326;-81
2023/02/27 01:40:52;;;;;;;;;;;0.70;1.00;;;;;;6095632;23;19928;-81
2023/02/27 01:43:18;;;;;;;;;;;0.70;99.90;;;;;;6096207;23;20319;-81
2023/02/27 01:45:47;;;;;;;;;;;0.70;1.00;;;;;;6096753;23;19909;-81
2023/02/27 01:48:13;;;;;;;;;;;0.70;1.00;;;;;;6122040;23;19905;-80
2023/02/27 01:50:41;;;;;;;;;;;0.70;99.90;;;;;;6096420;23;19909;-81
2023/02/27 01:53:07;;;;;;;;;;;0.70;34.40;;;;;;6121578;23;19950;-81
2023/02/27 01:55:36;;;;;;;;;;;0.70;1.00;;;;;;6123913;23;19955;-81
2023/02/27 01:58:03;;;;;;;;;;;0.70;99.90;;;;;;6123500;23;19905;-81
2023/02/27 02:00:28;;;;;;;;;;;0.70;1.00;;;;;;6123896;23;19909;-81
2023/02/27 02:03:06;;;;;;;;;;;0.60;35.40;;;;;;6096778;23;19911;-82
2023/02/27 02:05:32;;;;;;;;;;;0.60;99.90;;;;;;6122744;23;19905;-81
2023/02/27 02:07:57;;;;;;;;;;;0.50;99.90;;;;;;6122311;23;19970;-81
2023/02/27 02:10:23;;;;;;;;;;;0.50;1.00;;;;;;6122333;23;20404;-82
2023/02/27 02:12:49;;;;;;;;;;;0.40;1.00;;;;;;6122071;23;19905;-82
2023/02/27 02:15:15;;;;;;;;;;;0.40;99.90;;;;;;6120560;23;19909;-81
2023/02/27 02:17:46;;;;;;;;;;;0.40;99.90;;;;;;6123230;23;19905;-82
2023/02/27 02:20:18;;;;;;;;;;;0.30;99.90;;;;;;6122508;23;20310;-81
2023/02/27 02:22:52;;;;;;;;;;;0.40;99.90;;;;;;6096146;23;19912;-82
2023/02/27 02:25:42;;;;;;;;;;;0.30;1.00;;;;;;6096636;23;20378;-81
2023/02/27 02:28:10;;;;;;;;;;;0.30;99.90;;;;;;6122687;23;20287;-81
2023/02/27 02:30:55;;;;;;;;;;;0.30;99.90;;;;;;6122037;23;19913;-81
2023/02/27 02:33:26;;;;;;;;;;;0.30;1.00;;;;;;6121696;23;19917;-81
2023/02/27 02:35:54;;;;;;;;;;;0.30;99.90;;;;;;6122172;23;19905;-81
2023/02/27 02:38:19;;;;;;;;;;;0.30;99.90;;;;;;6122298;23;19909;-81
2023/02/27 02:40:45;;;;;;;;;;;0.30;99.90;;;;;;6096152;23;19912;-81
2023/02/27 02:43:25;;;;;;;;;;;0.30;99.90;;;;;;6121868;23;19914;-81
2023/02/27 02:45:57;;;;;;;;;;;0.20;1.00;;;;;;6122022;23;19928;-81
2023/02/27 02:48:29;;;;;;;;;;;0.20;99.90;;;;;;6122198;23;20318;-81
2023/02/27 02:51:10;;;;;;;;;;;0.20;99.90;;;;;;6121719;23;19928;-82
2023/02/27 02:53:46;;;;;;;;;;;0.20;62.20;;;;;;6121851;23;19912;-81
2023/02/27 02:56:12;;;;;;;;;;;0.20;1.00;;;;;;6095832;23;19905;-81
2023/02/27 02:58:53;;;;;;;;;;;0.20;1.00;;;;;;6121985;23;19905;-82
2023/02/27 03:01:39;;;;;;;;;;;0.20;99.90;;;;;;6121602;23;19905;-82
2023/02/27 03:04:04;;;;;;;;;;;0.20;13.30;;;;;;6126259;23;19913;-82
2023/02/27 03:06:32;;;;;;;;;;;0.20;99.90;;;;;;6121955;23;19932;-82
2023/02/27 03:09:04;;;;;;;;;;;0.10;99.90;;;;;;6121515;23;19999;-82
2023/02/27 03:11:31;;;;;;;;;;;0.10;1.00;;;;;;6121700;23;19909;-81
2023/02/27 03:14:05;;;;;;;;;;;0.10;99.90;;;;;;6121540;23;19967;-81
2023/02/27 03:16:34;;;;;;;;;;;0.10;1.00;;;;;;6096056;23;19985;-82
2023/02/27 03:19:17;;;;;;;;;;;0.10;18.00;;;;;;6121739;23;20236;-82
2023/02/27 03:21:55;;;;;;;;;;;0.10;99.90;;;;;;6095727;23;19941;-81
2023/02/27 03:24:26;;;;;;;;;;;0.00;1.00;;;;;;6121621;23;19909;-81
2023/02/27 03:26:53;;;;;;;;;;;0.00;1.00;;;;;;6121637;23;19979;-82
2023/02/27 03:29:25;;;;;;;;;;;0.00;99.90;;;;;;6121796;23;19909;-81
2023/02/27 03:32:03;;;;;;;;;;;0.00;1.00;;;;;;6119967;23;19936;-81
2023/02/27 03:34:36;;;;;;;;;;;0.00;74.30;;;;;;6095795;23;19905;-81
2023/02/27 03:37:05;;;;;;;;;;;-0.10;99.90;;;;;;6096082;23;20312;-82
2023/02/27 03:39:36;;;;;;;;;;;-0.10;99.90;;;;;;6121806;23;20341;-82
2023/02/27 03:42:20;;;;;;;;;;;-0.10;50.20;;;;;;6121415;23;19905;-82
2023/02/27 03:44:51;;;;;;;;;;;0.00;1.00;;;;;;6095608;23;19905;-81
2023/02/27 03:47:17;;;;;;;;;;;0.00;99.90;;;;;;6095910;23;19905;-81
2023/02/27 03:49:42;;;;;;;;;;;-0.10;99.90;;;;;;6095658;23;20372;-82
2023/02/27 03:52:08;;;;;;;;;;;-0.10;99.90;;;;;;6121470;23;19905;-81
2023/02/27 03:54:35;;;;;;;;;;;-0.10;1.00;;;;;;6095879;23;19913;-82
2023/02/27 03:57:03;;;;;;;;;;;-0.20;1.00;;;;;;6121683;23;20223;-82
2023/02/27 03:59:29;;;;;;;;;;;-0.20;99.90;;;;;;6121743;23;20327;-81
2023/02/27 04:01:55;;;;;;;;;;;-0.20;99.90;;;;;;6119776;23;19912;-81
2023/02/27 04:04:21;;;;;;;;;;;-0.20;99.90;;;;;;6121579;23;19993;-82
2023/02/27 04:10:03;;;;;;;;;;;-0.20;1.00;;;;;;6121805;23;19971;-82
2023/02/27 04:12:44;;;;;;;;;;;-0.30;4.60;;;;;;6121654;23;19909;-81
2023/02/27 04:15:20;;;;;;;;;;;-0.30;1.00;;;;;;6121533;23;19909;-82
2023/02/27 04:17:52;;;;;;;;;;;-0.30;99.90;;;;;;6121699;23;20404;-81
2023/02/27 04:20:37;;;;;;;;;;;-0.40;1.00;;;;;;6122075;23;19905;-82
2023/02/27 04:23:15;;;;;;;;;;;-0.30;92.90;;;;;;6121581;23;19905;-81
2023/02/27 04:25:46;;;;;;;;;;;-0.40;1.00;;;;;;6121939;23;20519;-82
2023/02/27 04:28:16;;;;;;;;;;;-0.40;1.00;;;;;;6122090;23;19913;-82
2023/02/27 04:30:57;;;;;;;;;;;-0.40;1.00;;;;;;6121797;23;19909;-82
2023/02/27 04:33:41;;;;;;;;;;;-0.40;99.90;;;;;;6122123;23;19905;-81
2023/02/27 04:36:12;;;;;;;;;;;-0.40;99.90;;;;;;6122195;23;20324;-82
2023/02/27 04:38:53;;;;;;;;;;;-0.40;1.00;;;;;;6122041;23;19905;-82
2023/02/27 04:41:22;;;;;;;;;;;-0.40;45.30;;;;;;6121259;23;19912;-81
2023/02/27 04:43:48;;;;;;;;;;;-0.40;1.00;;;;;;6095527;23;19993;-81
2023/02/27 04:46:15;;;;;;;;;;;-0.40;99.90;;;;;;6095357;23;20275;-81
2023/02/27 04:48:52;;;;;;;;;;;-0.50;44.00;;;;;;6121375;23;19912;-81
2023/02/27 04:51:20;;;;;;;;;;;-0.50;99.90;;;;;;6121062;23;20319;-82
2023/02/27 04:53:53;;;;;;;;;;;-0.50;99.90;;;;;;6095463;23;20003;-82
2023/02/27 04:56:24;;;;;;;;;;;-0.50;1.00;;;;;;6120270;23;19905;-82
2023/02/27 04:58:52;;;;;;;;;;;-0.60;99.90;;;;;;6121407;23;19935;-81
2023/02/27 05:01:34;;;;;;;;;;;-0.60;99.90;;;;;;6094997;23;19905;-81
2023/02/27 05:04:00;;;;;;;;;;;-0.60;99.90;;;;;;6121430;23;20291;-81
2023/02/27 05:06:31;;;;;;;;;;;-0.60;99.90;;;;;;6095821;23;19980;-82
2023/02/27 05:09:13;;;;;;;;;;;-0.70;99.90;;;;;;6120942;23;19980;-82
2023/02/27 05:11:38;;;;;;;;;;;-0.70;99.90;;;;;;6121163;23;19959;-81
2023/02/27 05:14:23;;;;;;;;;;;-0.70;99.90;;;;;;6095310;23;19905;-81
2023/02/27 05:17:08;;;;;;;;;;;-0.70;99.90;;;;;;6095171;23;19944;-81
2023/02/27 05:19:34;;;;;;;;;;;-0.70;99.90;;;;;;6096477;23;19928;-82
2023/02/27 05:22:08;;;;;;;;;;;-0.70;99.90;;;;;;6096281;23;19909;-81
2023/02/27 05:24:53;;;;;;;;;;;-0.70;99.90;;;;;;6095961;23;19936;-80
2023/02/27 05:27:37;;;;;;;;;;;-0.80;99.90;;;;;;6122286;23;19940;-81
2023/02/27 05:30:18;;;;;;;;;;;-0.80;99.90;;;;;;6122273;23;20318;-81
2023/02/27 05:32:55;;;;;;;;;;;-0.80;99.90;;;;;;6096044;23;19943;-81
2023/02/27 05:35:27;;;;;;;;;;;-0.80;99.90;;;;;;6120734;23;20342;-80
2023/02/27 05:38:04;;;;;;;;;;;-0.90;99.90;;;;;;6122261;23;19925;-81
2023/02/27 05:40:32;;;;;;;;;;;-0.90;1.00;;;;;;6122237;23;19909;-81
2023/02/27 05:43:18;;;;;;;;;;;-1.00;1.00;;;;;;6121870;23;19905;-80
2023/02/27 05:45:46;;;;;;;;;;;-1.00;99.90;;;;;;6121868;23;19905;-81
2023/02/27 05:48:23;;;;;;;;;;;-1.00;1.00;;;;;;6096127;23;19905;-80
2023/02/27 05:50:50;;;;;;;;;;;-1.00;1.00;;;;;;6122039;23;19909;-81
2023/02/27 05:53:17;;;;;;;;;;;-1.10;1.00;;;;;;6122495;23;19984;-80
2023/02/27 05:55:45;;;;;;;;;;;-1.10;1.00;;;;;;6122505;23;19905;-81
2023/02/27 05:58:19;;;;;;;;;;;-1.10;1.00;;;;;;6096646;23;20045;-81
2023/02/27 06:00:48;;;;;;;;;;;-1.10;1.00;;;;;;6122863;23;19987;-80
2023/02/27 06:19:01;;;;;;;;;;;-1.00;1.00;;;;;;6122877;22;19921;-81
2023/02/27 06:24:37;;;;;;;;;;;-1.00;1.00;;;;;;6125338;23;19905;-79
2023/02/27 06:27:08;;;;;;;;;;;-1.00;1.00;;;;;;6221145;23;19905;-79
2023/02/27 06:29:44;;;;;;;;;;;-1.10;1.00;;;;;;6226301;23;20246;-79
2023/02/27 06:32:47;;;;;;;;;;;-1.00;1.00;;;;;;6251889;22;20223;-79
2023/02/27 06:38:48;;;;;;;;;;;;;;;;;;;;;
2023/02/27 08:45:47;;;;;;;;;;;2.90;99.90;;;;;;6096843;23;19921;-80
2023/02/27 08:51:04;;;;;;;;;;;3.20;99.90;;;;;;6095957;23;19909;-82
2023/02/27 08:53:54;;;;;;;;;;;3.40;99.90;;;;;;6095356;23;19905;-81
2023/02/27 09:02:37;;;;;;;;;;;3.70;99.90;;;;;;6096044;23;19975;-79
2023/02/27 09:05:02;;;;;;;;;;;3.70;99.90;;;;;;6094341;23;20319;-81
2023/02/27 09:07:32;;;;;;;;;;;3.70;99.90;;;;;;6092133;23;19960;-80
2023/02/27 09:10:09;;;;;;;;;;;3.80;99.90;;;;;;6095390;23;19991;-82
2023/02/27 09:25:22;;;;;;;;;;;4.30;99.90;;;;;;6047482;23;19912;-79
2023/02/27 09:28:29;;;;;;;;;;;4.40;99.90;;;;;;6056173;23;20018;-80
2023/02/27 09:31:54;;;;;;;;;;;4.50;99.90;;;;;;6064475;23;19910;-79
2023/02/27 09:34:41;;;;;;;;;;;4.60;99.90;;;;;;6092664;23;19912;-80
2023/02/27 09:40:12;;;;;;;;;;;4.80;99.90;;;;;;6093189;23;19916;-80
2023/02/27 09:43:04;;;;;;;;;;;;;;;;;;;;;
2023/02/27 09:45:43;;;;;;;;;;;5.00;99.90;;;;;;6093731;23;19966;-80
2023/02/27 09:48:28;;;;;;;;;;;5.00;99.90;;;;;;6091976;23;19914;-79
2023/02/27 09:51:21;;;;;;;;;;;5.10;99.90;;;;;;6093150;23;19909;-79
2023/02/27 09:54:14;;;;;;;;;;;5.20;99.90;;;;;;6093205;23;19906;-80
2023/02/27 09:56:54;;;;;;;;;;;5.30;99.90;;;;;;6092868;23;19932;-80
2023/02/27 09:59:28;;;;;;;;;;;5.40;99.90;;;;;;6092546;23;19909;-79
2023/02/27 10:02:04;;;;;;;;;;;5.40;99.90;;;;;;6092037;23;19905;-80
2023/02/27 10:05:11;;;;;;;;;;;5.40;99.90;;;;;;6109130;22;19925;-82
2023/02/27 10:11:09;;;;;;;;;;;5.70;99.90;;;;;;6095620;23;19917;-81
2023/02/27 10:13:55;;;;;;;;;;;5.80;99.90;;;;;;6123267;23;19970;-80
2023/02/27 10:16:24;;;;;;;;;;;6.00;99.90;;;;;;6095343;23;19909;-82
2023/02/27 10:18:52;;;;;;;;;;;6.00;99.90;;;;;;6123161;23;19905;-81
2023/02/27 10:21:20;;;;;;;;;;;6.10;99.90;;;;;;6121860;23;19912;-81
2023/02/27 10:24:09;;;;;;;;;;;6.30;99.90;;;;;;6123494;23;19944;-81
2023/02/27 10:26:37;;;;;;;;;;;6.30;99.90;;;;;;6120496;23;19905;-82
2023/02/27 10:29:24;;;;;;;;;;;;;;;;;;;;;
2023/02/27 10:35:02;;;;;;;;;;;6.70;99.90;;;;;;6123052;23;19912;-82
2023/02/27 10:50:03;;;;;;;;;;;16.60;78.30;;;;;;6181408;23;19911;-80
2023/02/27 10:52:32;;;;;;;;;;;19.10;55.60;;;;;;6096035;23;19905;-81
2023/02/27 10:55:28;;;;;;;;;;;21.10;44.80;;;;;;6122352;23;19905;-80
2023/02/27 10:57:55;;;;;;;;;;;22.50;99.90;;;;;;6096233;23;19905;-80
2023/02/27 11:00:42;;;;;;;;;;;24.50;99.90;;;;;;6095980;23;19913;-81
2023/02/27 11:03:37;;;;;;;;;;;25.70;99.90;;;;;;6096369;23;20227;-81
2023/02/27 11:06:05;;;;;;;;;;;26.00;99.90;;;;;;6101616;23;20229;-82
2023/02/27 11:08:32;;;;;;;;;;;27.10;1.00;;;;;;6094855;23;20334;-82
2023/02/27 11:13:46;;;;;;;;;;;28.90;1.00;;;;;;6122132;22;20068;-81
2023/02/27 11:16:20;;;;;;;;;;;29.20;1.00;;;;;;6120873;22;19923;-81
2023/02/27 11:42:45;;;;;;;;;;;31.80;1.00;;;;;;6247018;23;19927;-83
2023/02/27 13:53:26;;;;;;;;;;;18.90;99.90;;;;;;6128659;23;19963;-81
2023/02/27 13:59:27;;;;;;;;;;;18.20;99.90;;;;;;6130570;23;19987;-82
2023/02/27 14:02:31;;;;;;;;;;;;;;;;;;;;;
2023/02/27 14:05:19;;;;;;;;;;;16.50;99.90;;;;;;6125250;23;19988;-81
2023/02/27 14:08:19;;;;;;;;;;;;;;;;;;;;;
2023/02/27 14:11:11;;;;;;;;;;;14.90;99.90;;;;;;6093604;23;19953;-82
2023/02/27 14:30:31;;;;;;;;;;;17.10;99.90;;;;;;6125253;22;20335;-81
2023/02/27 14:33:26;;;;;;;;;;;18.70;99.90;;;;;;6133278;22;20335;-80
2023/02/27 15:13:59;;;;;;;;;;;23.70;99.90;;;;;;6123782;22;19925;-81
2023/02/27 15:16:28;;;;;;;;;;;23.00;99.90;;;;;;6125573;23;19913;-82
2023/02/27 15:19:13;;;;;;;;;;;21.90;99.90;;;;;;6127724;23;19943;-81
2023/02/27 15:21:42;;;;;;;;;;;20.70;99.90;;;;;;6121524;23;19912;-80
2023/02/27 15:24:18;;;;;;;;;;;19.10;99.90;;;;;;6125655;23;19905;-81
2023/02/27 15:26:44;;;;;;;;;;;17.40;99.90;;;;;;6099078;23;20008;-82
2023/02/27 15:29:16;;;;;;;;;;;15.90;99.90;;;;;;6099861;23;20004;-82
2023/02/27 15:31:44;;;;;;;;;;;15.10;99.90;;;;;;6099008;23;19905;-82
2023/02/27 15:34:10;;;;;;;;;;;13.90;99.90;;;;;;6124893;23;19912;-83
2023/02/27 15:36:36;;;;;;;;;;;13.10;99.90;;;;;;6098753;23;19905;-82
2023/02/27 15:39:02;;;;;;;;;;;12.50;99.90;;;;;;6124125;23;19912;-82
2023/02/27 15:41:28;;;;;;;;;;;12.00;99.90;;;;;;6124797;23;19904;-82
2023/02/27 15:43:53;;;;;;;;;;;11.50;99.90;;;;;;6097805;23;19955;-83
2023/02/27 15:46:19;;;;;;;;;;;11.00;99.90;;;;;;6124888;23;19924;-82
2023/02/27 15:48:44;;;;;;;;;;;10.60;99.90;;;;;;6124735;23;19968;-81
2023/02/27 15:51:10;;;;;;;;;;;10.30;99.90;;;;;;6122457;23;19984;-82
2023/02/27 15:53:36;;;;;;;;;;;10.00;99.90;;;;;;6122476;23;20238;-82
2023/02/27 15:56:08;;;;;;;;;;;9.60;99.90;;;;;;6124263;23;19951;-82
2023/02/27 15:58:36;;;;;;;;;;;9.60;99.90;;;;;;6125269;23;19905;-81
2023/02/27 16:01:01;;;;;;;;;;;9.30;99.90;;;;;;6123736;23;20315;-81
2023/02/27 16:03:29;;;;;;;;;;;9.00;99.90;;;;;;6122038;22;19912;-81
2023/02/27 16:05:55;;;;;;;;;;;8.80;99.90;;;;;;6122620;23;19963;-82
2023/02/27 16:08:21;;;;;;;;;;;8.80;99.90;;;;;;6122866;23;19905;-83
2023/02/27 16:10:47;;;;;;;;;;;8.60;99.90;;;;;;6124369;23;19905;-81
2023/02/27 16:13:19;;;;;;;;;;;8.30;99.90;;;;;;6124275;23;19955;-83
2023/02/27 16:15:56;;;;;;;;;;;8.30;99.90;;;;;;6124172;23;19913;-81
2023/02/27 16:18:26;;;;;;;;;;;8.20;99.90;;;;;;6099397;23;19955;-82
2023/02/27 16:20:54;;;;;;;;;;;8.00;99.90;;;;;;6124361;23;19909;-81
2023/02/27 16:23:32;;;;;;;;;;;7.90;99.90;;;;;;6125450;23;19936;-81
2023/02/27 16:26:07;;;;;;;;;;;7.80;99.90;;;;;;6097657;23;19905;-80
2023/02/27 16:28:50;;;;;;;;;;;7.80;99.90;;;;;;6109856;22;19928;-82
2023/02/27 16:31:19;;;;;;;;;;;7.70;99.90;;;;;;6097268;23;19947;-81
2023/02/27 16:33:44;;;;;;;;;;;7.50;99.90;;;;;;6122283;22;19905;-82
2023/02/27 16:36:14;;;;;;;;;;;7.20;99.90;;;;;;6123710;23;19914;-82
2023/02/27 16:38:41;;;;;;;;;;;7.10;99.90;;;;;;6121986;23;20277;-83
2023/02/27 16:41:07;;;;;;;;;;;7.00;99.90;;;;;;6096844;23;20249;-81
2023/02/27 16:43:33;;;;;;;;;;;6.90;99.90;;;;;;6124171;23;19919;-83
2023/02/27 16:45:58;;;;;;;;;;;6.80;99.90;;;;;;6122355;22;20045;-81
2023/02/27 16:48:24;;;;;;;;;;;6.70;99.90;;;;;;6123942;23;19905;-82
2023/02/27 16:50:50;;;;;;;;;;;6.70;99.90;;;;;;6123545;23;19953;-80
2023/02/27 16:53:16;;;;;;;;;;;6.70;99.90;;;;;;6123489;23;19913;-81
2023/02/27 16:55:42;;;;;;;;;;;6.60;99.90;;;;;;6123431;23;19905;-81
2023/02/27 16:58:17;;;;;;;;;;;6.50;99.90;;;;;;6097817;23;19951;-82
2023/02/27 17:00:43;;;;;;;;;;;6.40;99.90;;;;;;6123912;23;19909;-81
2023/02/27 17:03:08;;;;;;;;;;;6.40;99.90;;;;;;6123741;23;19984;-81
2023/02/27 17:05:34;;;;;;;;;;;6.30;99.90;;;;;;6121497;22;19912;-82
2023/02/27 17:08:00;;;;;;;;;;;6.20;99.90;;;;;;6122606;23;19905;-82
2023/02/27 17:10:25;;;;;;;;;;;6.20;99.90;;;;;;6123570;23;19909;-82
2023/02/27 17:12:51;;;;;;;;;;;6.10;99.90;;;;;;6097515;23;20281;-80
2023/02/27 17:15:17;;;;;;;;;;;6.00;99.90;;;;;;6099568;23;19920;-80
2023/02/27 17:17:42;;;;;;;;;;;5.90;99.90;;;;;;6102515;23;19912;-80
2023/02/27 17:20:09;;;;;;;;;;;5.90;99.90;;;;;;6127379;23;19916;-80
2023/02/27 17:22:35;;;;;;;;;;;5.80;99.90;;;;;;6100462;23;19905;-80
2023/02/27 17:25:01;;;;;;;;;;;5.80;99.90;;;;;;6126471;23;19905;-80
2023/02/27 17:27:26;;;;;;;;;;;5.80;99.90;;;;;;6126252;23;19909;-80
2023/02/27 17:29:52;;;;;;;;;;;5.70;1.00;;;;;;6125058;22;19906;-80
2023/02/27 17:32:17;;;;;;;;;;;5.70;1.00;;;;;;6125915;23;20401;-79
2023/02/27 17:34:43;;;;;;;;;;;5.60;90.00;;;;;;6126355;23;19905;-80
2023/02/27 17:37:08;;;;;;;;;;;5.50;91.60;;;;;;6126970;23;20039;-80
2023/02/27 17:39:34;;;;;;;;;;;5.50;92.60;;;;;;6125902;23;19909;-79
2023/02/27 17:41:59;;;;;;;;;;;5.40;94.40;;;;;;6127149;23;19909;-80
2023/02/27 17:44:25;;;;;;;;;;;5.40;95.50;;;;;;6126354;23;19912;-80
2023/02/27 17:46:51;;;;;;;;;;;5.30;97.30;;;;;;6127358;23;20396;-79
2023/02/27 17:49:16;;;;;;;;;;;5.30;97.70;;;;;;6127062;23;19904;-79
2023/02/27 17:51:42;;;;;;;;;;;5.30;97.60;;;;;;6128111;23;20309;-81
2023/02/27 17:54:07;;;;;;;;;;;5.30;98.60;;;;;;6127110;23;19945;-80
2023/02/27 17:56:33;;;;;;;;;;;5.30;99.50;;;;;;6127235;23;20437;-80
2023/02/27 17:58:59;;;;;;;;;;;5.20;99.90;;;;;;6126491;23;19914;-80
2023/02/27 18:01:24;;;;;;;;;;;5.20;99.90;;;;;;6100384;23;19986;-80
2023/02/27 18:06:16;;;;;;;;;;;5.10;99.90;;;;;;6124653;22;19920;-84
2023/02/27 18:08:42;;;;;;;;;;;5.10;99.90;;;;;;6124906;23;19909;-84
2023/02/27 18:11:09;;;;;;;;;;;5.00;99.90;;;;;;6124745;23;19940;-84
2023/02/27 18:13:35;;;;;;;;;;;5.00;99.90;;;;;;6125526;23;19954;-84
2023/02/27 18:16:00;;;;;;;;;;;4.90;99.90;;;;;;6125966;22;20285;-83
2023/02/27 18:18:26;;;;;;;;;;;4.90;99.90;;;;;;6100397;23;19905;-85
2023/02/27 18:20:58;;;;;;;;;;;4.90;99.90;;;;;;6101550;23;19909;-84
2023/02/27 18:23:23;;;;;;;;;;;5.00;99.90;;;;;;6100591;23;19905;-84
2023/02/27 18:25:53;;;;;;;;;;;5.00;99.90;;;;;;6101411;23;19984;-86
2023/02/27 18:28:19;;;;;;;;;;;5.10;99.90;;;;;;6100569;23;19912;-85
2023/02/27 18:30:44;;;;;;;;;;;5.10;99.90;;;;;;6101096;23;19905;-85
2023/02/27 18:33:10;;;;;;;;;;;5.00;99.90;;;;;;6101227;23;20289;-85
2023/02/27 18:35:35;;;;;;;;;;;4.90;99.90;;;;;;6103188;23;19912;-84
2023/02/27 18:38:02;;;;;;;;;;;4.90;99.90;;;;;;6113743;23;19929;-83
2023/02/27 18:40:28;;;;;;;;;;;4.90;99.90;;;;;;6103109;23;20309;-83
2023/02/27 18:42:54;;;;;;;;;;;4.90;99.90;;;;;;6096952;23;19905;-85
2023/02/27 18:45:19;;;;;;;;;;;5.00;99.90;;;;;;6123307;23;19940;-84
2023/02/27 18:47:45;;;;;;;;;;;4.90;99.90;;;;;;6123026;23;19912;-82
2023/02/27 18:50:11;;;;;;;;;;;5.00;99.90;;;;;;6097460;23;19921;-84
2023/02/27 18:52:37;;;;;;;;;;;5.00;99.90;;;;;;6098192;23;20289;-81
2023/02/27 18:55:03;;;;;;;;;;;4.90;99.90;;;;;;6098496;23;19905;-84
2023/02/27 18:57:28;;;;;;;;;;;4.80;99.90;;;;;;6098607;23;19905;-86
2023/02/27 18:59:54;;;;;;;;;;;4.70;99.90;;;;;;6099184;23;20243;-86
2023/02/27 19:02:19;;;;;;;;;;;4.60;99.90;;;;;;6099638;23;19909;-84
2023/02/27 19:04:46;;;;;;;;;;;4.60;99.90;;;;;;6098035;23;19920;-86
2023/02/27 19:07:12;;;;;;;;;;;4.40;99.90;;;;;;6097916;23;19905;-84
2023/02/27 19:09:38;;;;;;;;;;;4.30;99.90;;;;;;6125722;23;19912;-84
2023/02/27 19:12:03;;;;;;;;;;;4.30;99.90;;;;;;6099841;23;19984;-86
2023/02/27 19:14:30;;;;;;;;;;;4.20;99.90;;;;;;6098912;23;20687;-84
2023/02/27 19:16:59;;;;;;;;;;;4.20;99.90;;;;;;6099586;23;19909;-84
2023/02/27 19:19:27;;;;;;;;;;;4.20;99.90;;;;;;6123480;23;19913;-84
2023/02/27 19:21:53;;;;;;;;;;;4.20;99.90;;;;;;6099492;23;19929;-86
2023/02/27 19:24:18;;;;;;;;;;;4.30;99.90;;;;;;6099796;23;19912;-83
2023/02/27 19:26:44;;;;;;;;;;;4.40;99.90;;;;;;6124546;23;20223;-83
2023/02/27 19:29:09;;;;;;;;;;;4.50;99.90;;;;;;6101208;23;19913;-84
2023/02/27 19:31:35;;;;;;;;;;;4.50;99.90;;;;;;6102650;23;20315;-84
2023/02/27 19:34:01;;;;;;;;;;;4.60;99.90;;;;;;6101199;23;19916;-83
2023/02/27 19:36:27;;;;;;;;;;;4.70;99.90;;;;;;6123946;23;19909;-83
2023/02/27 19:38:54;;;;;;;;;;;4.70;99.90;;;;;;6100697;23;19925;-85
2023/02/27 19:41:20;;;;;;;;;;;4.80;99.90;;;;;;6101098;23;19961;-87
2023/02/27 19:43:46;;;;;;;;;;;4.90;99.90;;;;;;6101705;23;19905;-83
2023/02/27 19:46:19;;;;;;;;;;;4.90;99.90;;;;;;6127266;23;20242;-86
2023/02/27 19:48:45;;;;;;;;;;;4.90;99.90;;;;;;6102045;23;19927;-84
2023/02/27 19:51:11;;;;;;;;;;;4.90;99.90;;;;;;6099350;23;19905;-84
2023/02/27 19:53:38;;;;;;;;;;;4.90;99.90;;;;;;6099917;23;19909;-87
2023/02/27 19:56:05;;;;;;;;;;;5.00;99.90;;;;;;6126506;23;19909;-84
2023/02/27 19:58:32;;;;;;;;;;;4.90;99.90;;;;;;6098370;23;19905;-86
2023/02/27 20:00:57;;;;;;;;;;;4.90;99.90;;;;;;6098643;23;19909;-86
2023/02/27 20:03:23;;;;;;;;;;;4.80;99.90;;;;;;6121694;23;20330;-87
2023/02/27 20:05:49;;;;;;;;;;;4.70;99.90;;;;;;6096743;23;20219;-87
2023/02/27 20:08:17;;;;;;;;;;;4.60;99.90;;;;;;6098206;23;20219;-88
2023/02/27 20:10:53;;;;;;;;;;;4.50;99.90;;;;;;6098360;23;20012;-82
2023/02/27 20:13:19;;;;;;;;;;;4.40;99.90;;;;;;6122602;23;19905;-85
2023/02/27 20:15:44;;;;;;;;;;;4.30;99.90;;;;;;6100405;23;19912;-85
2023/02/27 20:18:10;;;;;;;;;;;4.20;99.90;;;;;;6100281;23;19912;-84
2023/02/27 20:20:38;;;;;;;;;;;4.00;99.90;;;;;;6098516;23;19909;-88
2023/02/27 20:23:06;;;;;;;;;;;4.00;99.90;;;;;;6100897;23;19932;-87
2023/02/27 20:25:31;;;;;;;;;;;3.90;99.90;;;;;;6102967;23;20035;-84
2023/02/27 20:28:09;;;;;;;;;;;3.90;99.90;;;;;;6101927;23;20281;-84
2023/02/27 20:30:34;;;;;;;;;;;3.80;99.90;;;;;;6100985;23;19912;-84
2023/02/27 20:33:00;;;;;;;;;;;3.80;99.90;;;;;;6097557;23;19905;-84
2023/02/27 20:35:25;;;;;;;;;;;3.80;99.90;;;;;;6098557;23;19906;-86
2023/02/27 20:37:51;;;;;;;;;;;3.70;99.90;;;;;;6100030;23;19905;-84
2023/02/27 20:40:17;;;;;;;;;;;3.60;99.90;;;;;;6099572;23;19913;-83
2023/02/27 20:42:46;;;;;;;;;;;3.60;99.90;;;;;;6098926;23;19912;-84
2023/02/27 20:45:11;;;;;;;;;;;3.60;99.90;;;;;;6124424;23;20392;-87
2023/02/27 20:47:37;;;;;;;;;;;3.50;99.90;;;;;;6099500;23;19905;-83
2023/02/27 20:50:03;;;;;;;;;;;3.50;99.90;;;;;;6098713;23;19916;-87
2023/02/27 20:52:31;;;;;;;;;;;3.40;99.90;;;;;;6125283;23;19906;-88
2023/02/27 20:54:56;;;;;;;;;;;3.40;99.90;;;;;;6100609;23;19909;-84
2023/02/27 20:57:22;;;;;;;;;;;3.40;99.90;;;;;;6100580;23;19905;-85
2023/02/27 20:59:49;;;;;;;;;;;3.40;99.90;;;;;;6099655;23;19916;-83
2023/02/27 21:02:14;;;;;;;;;;;3.30;99.90;;;;;;6099945;23;19927;-86
2023/02/27 21:04:45;;;;;;;;;;;3.30;99.90;;;;;;6100756;23;19916;-83
2023/02/27 21:07:12;;;;;;;;;;;3.30;99.90;;;;;;6122165;23;19947;-85
2023/02/27 21:09:38;;;;;;;;;;;3.30;99.90;;;;;;6097907;23;19912;-84
2023/02/27 21:12:04;;;;;;;;;;;3.30;99.90;;;;;;6097573;23;19909;-86
2023/02/27 21:14:29;;;;;;;;;;;3.30;99.90;;;;;;6100001;23;20380;-85
2023/02/27 21:16:55;;;;;;;;;;;3.30;99.90;;;;;;6099705;23;19905;-85
2023/02/27 21:19:20;;;;;;;;;;;3.30;99.90;;;;;;6099344;23;20163;-85
2023/02/27 21:21:46;;;;;;;;;;;3.40;99.90;;;;;;6099576;23;20330;-84
2023/02/27 21:24:13;;;;;;;;;;;3.40;99.90;;;;;;6101325;23;19905;-85
2023/02/27 21:26:39;;;;;;;;;;;3.30;99.90;;;;;;6100772;23;19905;-84
2023/02/27 21:29:04;;;;;;;;;;;3.30;99.90;;;;;;6101518;23;20283;-85
2023/02/27 21:31:31;;;;;;;;;;;3.30;99.90;;;;;;6124044;23;19912;-84
2023/02/27 21:33:58;;;;;;;;;;;3.30;99.90;;;;;;6100980;23;19931;-83
2023/02/27 21:36:25;;;;;;;;;;;3.30;99.90;;;;;;6102233;23;19905;-84
2023/02/27 21:38:53;;;;;;;;;;;3.30;99.90;;;;;;6127952;23;19912;-87
2023/02/27 21:41:19;;;;;;;;;;;3.20;99.90;;;;;;6099931;23;19917;-87
2023/02/27 21:43:45;;;;;;;;;;;3.20;99.90;;;;;;6101740;23;19905;-87